map of SBCC home
SBCC - Airport
Location
City:  Novo Progresso, Pará, Brazil
Name:Cachimbo AB
ICAO:SBCC

Details
Type:Airport (Aerodrome, Airfield)
Use:Military
Latitude:9°20'02"S (-9.333935)
Longitude:54°57'56"W (-54.965421)
Datum:WGS 1984
Elevation:1762 ft (537 m)
Variation:18.58°W (WMM2015 magnetic declination)
-0.12° annual change
Runways:1
Longest:8537 × 148 ft (2602 × 45 m), paved

Time
Time Zone:UTC-3
Local Time:

Weather
METAR:SBCC 182000Z 27004KT 9999 SCT040 FEW046TCU BKN100 23/21 Q1013

Related Locations
Nearby:
Farthest:CGM: 12428 mi / 20001 km
Camiguin, PH

Find:

   beyond  
but within

Other Information
Maps:
NOTAMs:
Links:
Sources:

  
  • flag of Brazil
  • flag of Pará
  

Sectional Chart

Flight Planning
at skyvector.com

Satellite Image

Google Maps Satellite view

 

Copyright © 2004-2018 Karl L. Swartz. All rights reserved.
The Great Circle Mapper name and logo are trademarks of the Great Circle Mapper.
All other trademarks mentioned herein belong to their respective owners.
Please see credits for attibutions and further copyright information.

  Follow gcmap on Facebook Follow gcmap on Twitter Follow gcmap on Google+ GCmap on LinkedIn

hCard Microformat

Geo Microformat